createdAt,value
2022-09-25T00:01:11.695Z,100408.10
2022-09-25T00:04:19.046Z,100412.69
2022-09-25T00:07:25.423Z,100418.97
2022-09-25T00:10:32.782Z,100408.05
2022-09-25T00:13:38.602Z,100412.46
2022-09-25T00:16:45.718Z,100420.11
2022-09-25T00:19:57.837Z,100418.57
2022-09-25T00:23:06.262Z,100411.55
2022-09-25T00:26:12.608Z,100416.30
2022-09-25T00:29:18.522Z,100418.84
2022-09-25T00:32:25.141Z,100419.67
2022-09-25T00:35:32.705Z,100416.73
2022-09-25T00:38:39.092Z,100416.03
2022-09-25T00:41:45.571Z,100420.45
2022-09-25T00:45:14.124Z,100416.18
2022-09-25T00:48:20.606Z,100413.62
2022-09-25T00:51:25.869Z,100417.34
2022-09-25T00:54:36.437Z,100417.50
2022-09-25T00:57:44.567Z,100421.75
2022-09-25T01:00:50.404Z,100417.81
2022-09-25T01:03:56.969Z,100415.25
2022-09-25T01:06:57.228Z,100418.47
2022-09-25T01:10:05.349Z,100416.94
2022-09-25T01:13:11.163Z,100414.38
2022-09-25T01:16:31.068Z,100415.73
2022-09-25T01:19:45.015Z,100422.34
2022-09-25T01:23:21.185Z,100415.19
2022-09-25T01:27:00.402Z,100419.28
2022-09-25T01:30:21.010Z,100415.51
2022-09-25T01:33:32.138Z,100421.28
2022-09-25T01:36:52.038Z,100421.77
2022-09-25T01:40:18.620Z,100425.16
2022-09-25T01:43:33.470Z,100416.98
2022-09-25T01:46:46.875Z,100428.41
2022-09-25T01:50:09.031Z,100427.20
2022-09-25T01:53:18.863Z,100426.00
2022-09-25T01:56:39.852Z,100427.52
2022-09-25T02:00:09.370Z,100427.69
2022-09-25T02:03:33.115Z,100430.91
2022-09-25T02:06:40.388Z,100428.34
2022-09-25T02:09:52.989Z,100423.05
2022-09-25T02:13:04.840Z,100423.55
2022-09-25T02:16:20.130Z,100431.02
2022-09-25T02:19:46.714Z,100432.91
2022-09-25T02:22:52.411Z,100435.26
2022-09-25T02:26:07.020Z,100432.19
2022-09-25T02:29:15.910Z,100432.34
2022-09-25T02:32:28.676Z,100429.78
2022-09-25T02:35:27.748Z,100432.14
2022-09-25T02:38:33.902Z,100442.20
2022-09-25T02:42:01.384Z,100440.84
2022-09-25T02:45:31.119Z,100440.13
2022-09-25T02:48:55.714Z,100444.22
2022-09-25T02:52:13.806Z,100445.73
2022-09-25T02:55:44.090Z,100447.59
2022-09-25T02:59:05.361Z,100447.91
2022-09-25T03:02:12.394Z,100445.19
2022-09-25T03:05:19.127Z,100445.72
2022-09-25T03:08:46.213Z,100453.02
2022-09-25T03:11:52.738Z,100452.31
2022-09-25T03:14:58.395Z,100450.95
2022-09-25T03:18:05.012Z,100453.17
2022-09-25T03:21:10.816Z,100452.65
2022-09-25T03:24:16.670Z,100447.89
2022-09-25T03:27:21.945Z,100454.70
2022-09-25T03:30:28.458Z,100457.42
2022-09-25T03:33:36.876Z,100461.13
2022-09-25T03:36:45.125Z,100467.94
2022-09-25T03:39:51.050Z,100462.16
2022-09-25T03:42:57.452Z,100471.35
2022-09-25T03:46:03.303Z,100465.38
2022-09-25T03:49:08.725Z,100471.69
2022-09-25T03:52:19.439Z,100473.55
2022-09-25T03:55:26.989Z,100465.38
2022-09-25T03:58:32.904Z,100467.11
2022-09-25T04:01:38.540Z,100470.67
2022-09-25T04:04:45.570Z,100474.97
2022-09-25T04:07:52.052Z,100472.09
2022-09-25T04:10:59.727Z,100481.31
2022-09-25T04:14:06.083Z,100479.63
2022-09-25T04:17:11.658Z,100483.07
2022-09-25T04:20:18.365Z,100486.34
2022-09-25T04:23:24.446Z,100486.87
2022-09-25T04:26:31.001Z,100490.64
2022-09-25T04:29:39.091Z,100495.66
2022-09-25T04:33:02.602Z,100487.32
2022-09-25T04:36:08.105Z,100492.64
2022-09-25T04:39:14.153Z,100489.59
2022-09-25T04:42:20.110Z,100492.06
2022-09-25T04:45:26.923Z,100489.88
2022-09-25T04:48:33.132Z,100500.15
2022-09-25T04:51:38.550Z,100501.75
2022-09-25T04:54:44.327Z,100503.38
2022-09-25T04:57:59.271Z,100495.39
2022-09-25T05:00:59.759Z,100494.25
2022-09-25T05:04:13.808Z,100498.06
2022-09-25T05:07:13.313Z,100500.85
2022-09-25T05:10:21.385Z,100499.88
2022-09-25T05:13:27.747Z,100508.99
2022-09-25T05:16:37.947Z,100498.46
2022-09-25T05:19:44.840Z,100511.13
2022-09-25T05:22:49.635Z,100508.45
2022-09-25T05:25:54.742Z,100512.75
2022-09-25T05:29:04.245Z,100517.92
2022-09-25T05:32:11.599Z,100517.09
2022-09-25T05:35:21.194Z,100521.90
2022-09-25T05:38:27.600Z,100508.11
2022-09-25T05:41:33.256Z,100513.78
2022-09-25T05:44:39.289Z,100510.17
2022-09-25T05:47:46.097Z,100527.64
2022-09-25T05:50:54.066Z,100521.50
2022-09-25T05:54:02.038Z,100525.80
2022-09-25T05:57:08.932Z,100521.89
2022-09-25T06:00:17.209Z,100527.55
2022-09-25T06:03:23.804Z,100539.71
2022-09-25T06:06:30.410Z,100540.56
2022-09-25T06:09:36.098Z,100535.82
2022-09-25T06:12:45.938Z,100546.24
2022-09-25T06:15:55.493Z,100539.45
2022-09-25T06:19:04.282Z,100533.48
2022-09-25T06:22:09.981Z,100551.97
2022-09-25T06:25:18.036Z,100549.08
2022-09-25T06:28:23.548Z,100550.27
2022-09-25T06:31:28.860Z,100552.84
2022-09-25T06:34:36.328Z,100551.80
2022-09-25T06:37:43.588Z,100548.02
2022-09-25T06:40:50.215Z,100557.74
2022-09-25T06:43:56.430Z,100546.60
2022-09-25T06:47:06.467Z,100552.58
2022-09-25T06:50:12.938Z,100545.20
2022-09-25T06:53:19.978Z,100543.27
2022-09-25T06:56:26.100Z,100552.16
2022-09-25T06:59:33.669Z,100547.66
2022-09-25T07:02:58.191Z,100551.74
2022-09-25T07:06:07.167Z,100544.20
2022-09-25T07:09:13.783Z,100552.20
2022-09-25T07:12:20.560Z,100547.01
2022-09-25T07:15:26.615Z,100553.64
2022-09-25T07:18:34.763Z,100543.62
2022-09-25T07:21:40.266Z,100547.83
2022-09-25T07:24:46.803Z,100545.20
2022-09-25T07:27:54.537Z,100549.91
2022-09-25T07:31:02.807Z,100553.97
2022-09-25T07:34:11.228Z,100550.66
2022-09-25T07:37:16.544Z,100545.79
2022-09-25T07:40:25.430Z,100553.96
2022-09-25T07:43:32.377Z,100537.41
2022-09-25T07:46:41.251Z,100544.20
2022-09-25T07:49:48.398Z,100558.92
2022-09-25T07:52:55.414Z,100548.19
2022-09-25T07:56:06.049Z,100544.53
2022-09-25T07:59:10.059Z,100559.80
2022-09-25T08:02:17.087Z,100543.91
2022-09-25T08:05:25.206Z,100549.16
2022-09-25T08:08:32.650Z,100548.25
2022-09-25T08:11:38.760Z,100555.73
2022-09-25T08:14:48.721Z,100557.20
2022-09-25T08:17:54.012Z,100555.93
2022-09-25T08:21:01.441Z,100549.86
2022-09-25T08:24:07.962Z,100550.27
2022-09-25T08:27:12.191Z,100549.20
2022-09-25T08:29:59.767Z,100548.79
2022-09-25T08:32:52.302Z,100551.25
2022-09-25T08:35:41.412Z,100550.23
2022-09-25T08:38:39.905Z,100546.00
2022-09-25T08:41:58.826Z,100549.39
2022-09-25T08:45:25.175Z,100549.34
2022-09-25T08:48:53.708Z,100542.11
2022-09-25T08:52:01.065Z,100537.16
2022-09-25T08:55:07.661Z,100542.73
2022-09-25T08:58:13.984Z,100541.73
2022-09-25T09:01:24.607Z,100560.75
2022-09-25T09:04:49.572Z,100537.14
2022-09-25T09:08:01.279Z,100547.99
2022-09-25T09:11:16.156Z,100539.22
2022-09-25T09:14:32.511Z,100534.01
2022-09-25T09:17:43.223Z,100540.40
2022-09-25T09:20:59.246Z,100540.45
2022-09-25T09:24:28.591Z,100533.64
2022-09-25T09:27:48.430Z,100532.84
2022-09-25T09:31:04.720Z,100527.27
2022-09-25T09:35:04.100Z,100546.04
2022-09-25T09:38:23.961Z,100530.19
2022-09-25T09:41:49.768Z,100535.78
2022-09-25T09:45:28.685Z,100531.08
2022-09-25T09:48:44.593Z,100525.69
2022-09-25T09:52:28.234Z,100538.30
2022-09-25T09:55:56.812Z,100522.73
2022-09-25T09:59:16.201Z,100516.80
2022-09-25T10:02:54.383Z,100529.05
2022-09-25T10:06:08.104Z,100532.46
2022-09-25T10:09:15.497Z,100528.63
2022-09-25T10:12:46.584Z,100528.89
2022-09-25T10:16:01.010Z,100518.08
2022-09-25T10:19:37.449Z,100518.06
2022-09-25T10:22:47.738Z,100528.84
2022-09-25T10:25:56.352Z,100522.12
2022-09-25T10:29:04.191Z,100527.36
2022-09-25T10:32:15.392Z,100521.47
2022-09-25T10:35:42.446Z,100533.53
2022-09-25T10:39:17.985Z,100534.81
2022-09-25T10:42:08.771Z,100536.41
2022-09-25T10:45:14.135Z,100533.13
2022-09-25T10:51:27.839Z,100536.63
2022-09-25T10:54:33.281Z,100532.36
2022-09-25T10:57:51.706Z,100523.00
2022-09-25T11:01:17.369Z,100515.38
2022-09-25T11:04:45.918Z,100521.86
2022-09-25T11:07:51.174Z,100516.95
2022-09-25T11:11:21.235Z,100533.54
2022-09-25T11:14:47.456Z,100533.97
2022-09-25T11:17:56.401Z,100533.84
2022-09-25T11:21:04.430Z,100546.72
2022-09-25T11:24:35.642Z,100557.23
2022-09-25T11:27:59.071Z,100536.48
2022-09-25T11:31:16.694Z,100532.89
2022-09-25T11:34:42.820Z,100534.62
2022-09-25T11:38:15.857Z,100535.45
2022-09-25T11:41:26.248Z,100542.80
2022-09-25T11:44:42.955Z,100547.06
2022-09-25T11:48:08.449Z,100549.81
2022-09-25T11:51:45.897Z,100544.30
2022-09-25T11:55:13.095Z,100537.13
2022-09-25T11:58:42.675Z,100540.89
2022-09-25T12:01:56.879Z,100538.12
2022-09-25T12:05:17.951Z,100549.81
2022-09-25T12:09:07.890Z,100539.27
2022-09-25T12:12:30.886Z,100539.39
2022-09-25T12:16:00.948Z,100533.84
2022-09-25T12:19:17.782Z,100534.12
2022-09-25T12:22:48.024Z,100534.11
2022-09-25T12:26:34.467Z,100523.73
2022-09-25T12:30:29.227Z,100534.09
2022-09-25T12:33:41.258Z,100531.94
2022-09-25T12:37:27.735Z,100526.78
2022-09-25T12:40:54.056Z,100521.36
2022-09-25T12:44:10.949Z,100527.12
2022-09-25T12:47:32.572Z,100539.67
2022-09-25T12:50:43.907Z,100538.41
2022-09-25T12:53:57.619Z,100532.45
2022-09-25T12:57:14.057Z,100534.48
2022-09-25T13:00:35.228Z,100529.61
2022-09-25T13:03:53.757Z,100526.10
2022-09-25T13:07:16.646Z,100533.86
2022-09-25T13:10:48.696Z,100529.92
2022-09-25T13:14:05.551Z,100537.48
2022-09-25T13:17:11.026Z,100527.80
2022-09-25T13:20:43.870Z,100541.61
2022-09-25T13:23:50.985Z,100535.64
2022-09-25T13:27:05.081Z,100536.94
2022-09-25T13:30:15.295Z,100531.73
2022-09-25T13:33:23.197Z,100536.95
2022-09-25T13:36:39.466Z,100539.29
2022-09-25T13:40:19.581Z,100544.30
2022-09-25T13:43:44.947Z,100537.06
2022-09-25T13:46:49.785Z,100541.40
2022-09-25T13:50:06.690Z,100538.19
2022-09-25T13:53:28.586Z,100544.84
2022-09-25T13:56:41.330Z,100553.34
2022-09-25T13:59:52.752Z,100542.91
2022-09-25T14:02:59.768Z,100548.94
2022-09-25T14:06:05.820Z,100558.70
2022-09-25T14:09:16.301Z,100551.02
2022-09-25T14:12:36.010Z,100555.34
2022-09-25T14:15:51.523Z,100550.34
2022-09-25T14:19:03.033Z,100549.13
2022-09-25T14:22:08.911Z,100551.66
2022-09-25T14:25:15.223Z,100543.13
2022-09-25T14:28:39.128Z,100548.86
2022-09-25T14:31:50.489Z,100545.44
2022-09-25T14:35:13.215Z,100552.14
2022-09-25T14:38:32.922Z,100547.69
2022-09-25T14:41:55.567Z,100550.13
2022-09-25T14:45:30.938Z,100546.78
2022-09-25T14:48:47.676Z,100555.98
2022-09-25T14:51:58.744Z,100556.35
2022-09-25T14:55:07.105Z,100555.62
2022-09-25T14:58:12.951Z,100555.78
2022-09-25T15:01:45.857Z,100555.93
2022-09-25T15:04:51.321Z,100554.64
2022-09-25T15:07:57.937Z,100559.76
2022-09-25T15:11:03.605Z,100568.17
2022-09-25T15:14:09.778Z,100567.17
2022-09-25T15:17:31.927Z,100559.77
2022-09-25T15:20:38.173Z,100570.61
2022-09-25T15:23:45.094Z,100572.32
2022-09-25T15:26:54.428Z,100570.02
2022-09-25T15:30:00.617Z,100566.32
2022-09-25T15:33:09.146Z,100565.94
2022-09-25T15:36:16.255Z,100556.10
2022-09-25T15:39:31.173Z,100553.13
2022-09-25T15:42:37.220Z,100562.14
2022-09-25T15:46:02.103Z,100552.81
2022-09-25T15:49:12.860Z,100544.48
2022-09-25T15:52:36.453Z,100548.87
2022-09-25T15:55:46.008Z,100548.08
2022-09-25T15:59:02.459Z,100542.34
2022-09-25T16:02:26.218Z,100549.16
2022-09-25T16:05:36.810Z,100557.52
2022-09-25T16:08:47.716Z,100558.45
2022-09-25T16:11:56.571Z,100554.78
2022-09-25T16:15:03.167Z,100551.80
2022-09-25T16:18:18.533Z,100560.14
2022-09-25T16:21:42.591Z,100561.94
2022-09-25T16:24:49.460Z,100560.84
2022-09-25T16:27:58.106Z,100565.55
2022-09-25T16:31:15.403Z,100570.11
2022-09-25T16:34:23.639Z,100565.36
2022-09-25T16:37:35.147Z,100569.80
2022-09-25T16:40:45.905Z,100569.23
2022-09-25T16:47:20.634Z,100568.80
2022-09-25T16:50:27.610Z,100568.95
2022-09-25T16:53:34.069Z,100577.97
2022-09-25T16:56:47.850Z,100587.47
2022-09-25T16:59:54.350Z,100582.20
2022-09-25T17:03:01.391Z,100580.56
2022-09-25T17:06:07.403Z,100581.45
2022-09-25T17:09:13.952Z,100582.33
2022-09-25T17:12:25.352Z,100588.36
2022-09-25T17:15:39.270Z,100590.94
2022-09-25T17:18:45.582Z,100584.62
2022-09-25T17:21:52.153Z,100590.95
2022-09-25T17:24:58.930Z,100591.32
2022-09-25T17:28:06.989Z,100595.08
2022-09-25T17:31:14.614Z,100600.74
2022-09-25T17:34:36.729Z,100604.13
2022-09-25T17:37:42.841Z,100603.45
2022-09-25T17:40:49.674Z,100603.44
2022-09-25T17:43:56.936Z,100609.27
2022-09-25T17:47:06.402Z,100605.80
2022-09-25T17:50:11.796Z,100606.85
2022-09-25T17:53:18.179Z,100608.86
2022-09-25T17:56:26.507Z,100610.73
2022-09-25T17:59:32.265Z,100603.84
2022-09-25T18:02:38.665Z,100604.52
2022-09-25T18:05:44.468Z,100596.29
2022-09-25T18:08:52.260Z,100607.03
2022-09-25T18:11:59.506Z,100599.99
2022-09-25T18:15:00.015Z,100596.73
2022-09-25T18:18:06.287Z,100605.26
2022-09-25T18:21:31.399Z,100600.13
2022-09-25T18:24:38.716Z,100595.66
2022-09-25T18:27:49.124Z,100606.05
2022-09-25T18:30:56.081Z,100609.98
2022-09-25T18:34:02.857Z,100613.71
2022-09-25T18:37:09.500Z,100610.97
2022-09-25T18:40:15.550Z,100607.33
2022-09-25T18:43:21.660Z,100617.05
2022-09-25T18:46:27.337Z,100612.73
2022-09-25T18:49:33.849Z,100605.70
2022-09-25T18:52:40.194Z,100608.05
2022-09-25T18:55:49.856Z,100610.11
2022-09-25T18:58:58.210Z,100614.82
2022-09-25T19:02:04.350Z,100609.14
2022-09-25T19:05:12.666Z,100611.68
2022-09-25T19:08:18.123Z,100616.05
2022-09-25T19:11:29.463Z,100607.48
2022-09-25T19:14:38.796Z,100618.01
2022-09-25T19:17:46.849Z,100624.16
2022-09-25T19:20:53.722Z,100616.47
2022-09-25T19:24:05.626Z,100623.29
2022-09-25T19:27:11.794Z,100623.29
2022-09-25T19:30:17.876Z,100629.95
2022-09-25T19:33:23.859Z,100625.86
2022-09-25T19:36:39.559Z,100628.59
2022-09-25T19:39:48.922Z,100632.19
2022-09-25T19:42:56.176Z,100622.10
2022-09-25T19:46:06.655Z,100628.75
2022-09-25T19:49:13.567Z,100625.45
2022-09-25T19:52:24.487Z,100634.23
2022-09-25T19:55:32.087Z,100634.20
2022-09-25T19:58:38.466Z,100639.59
2022-09-25T20:01:45.902Z,100644.34
2022-09-25T20:04:57.003Z,100643.30
2022-09-25T20:08:03.158Z,100638.86
2022-09-25T20:11:10.738Z,100642.95
2022-09-25T20:14:17.811Z,100637.59
2022-09-25T20:17:24.570Z,100639.09
2022-09-25T20:20:32.608Z,100642.45
2022-09-25T20:23:38.167Z,100642.33
2022-09-25T20:26:46.841Z,100632.88
2022-09-25T20:29:52.457Z,100636.72
2022-09-25T20:32:59.669Z,100647.78
2022-09-25T20:36:05.943Z,100637.74
2022-09-25T20:39:16.808Z,100635.67
2022-09-25T20:42:20.364Z,100634.77
2022-09-25T20:45:26.758Z,100626.19
2022-09-25T20:48:34.154Z,100625.13
2022-09-25T20:51:44.857Z,100630.25
2022-09-25T20:54:50.768Z,100623.89
2022-09-25T20:57:58.648Z,100629.62
2022-09-25T21:01:04.910Z,100625.53
2022-09-25T21:04:12.705Z,100625.00
2022-09-25T21:07:18.744Z,100631.25
2022-09-25T21:10:24.274Z,100620.02
2022-09-25T21:13:33.244Z,100621.50
2022-09-25T21:16:39.968Z,100621.00
2022-09-25T21:19:47.071Z,100621.38
2022-09-25T21:22:55.106Z,100615.24
2022-09-25T21:26:03.193Z,100615.62
2022-09-25T21:29:10.704Z,100615.31
2022-09-25T21:32:16.560Z,100612.59
2022-09-25T21:35:22.208Z,100604.26
2022-09-25T21:38:27.638Z,100610.05
2022-09-25T21:41:39.485Z,100600.02
2022-09-25T21:44:45.911Z,100595.86
2022-09-25T21:47:54.375Z,100597.91
2022-09-25T21:51:12.567Z,100589.02
2022-09-25T21:54:18.749Z,100591.41
2022-09-25T21:57:27.020Z,100588.68
2022-09-25T22:00:35.034Z,100586.94
2022-09-25T22:03:42.300Z,100583.02
2022-09-25T22:06:54.875Z,100586.23
2022-09-25T22:10:01.363Z,100589.41
2022-09-25T22:13:10.037Z,100581.06
2022-09-25T22:16:17.925Z,100590.52
2022-09-25T22:19:32.674Z,100595.14
2022-09-25T22:22:38.385Z,100592.04
2022-09-25T22:25:44.083Z,100592.72
2022-09-25T22:28:52.139Z,100602.59
2022-09-25T22:31:58.116Z,100606.87
2022-09-25T22:35:03.947Z,100611.17
2022-09-25T22:38:09.948Z,100601.48
2022-09-25T22:41:25.512Z,100606.56
2022-09-25T22:44:32.078Z,100596.20
2022-09-25T22:47:38.879Z,100596.99
2022-09-25T22:50:44.647Z,100596.13
2022-09-25T22:53:50.414Z,100596.44
2022-09-25T22:56:57.960Z,100585.69
2022-09-25T23:00:05.116Z,100582.63
2022-09-25T23:03:13.267Z,100591.25
2022-09-25T23:06:19.485Z,100590.84
2022-09-25T23:09:28.557Z,100591.00
2022-09-25T23:12:36.389Z,100597.95
2022-09-25T23:15:41.351Z,100603.17
2022-09-25T23:18:52.125Z,100595.80
2022-09-25T23:21:58.321Z,100599.20
2022-09-25T23:25:04.707Z,100597.63
2022-09-25T23:28:10.810Z,100602.31
2022-09-25T23:31:27.019Z,100604.69
2022-09-25T23:34:32.379Z,100595.09
2022-09-25T23:37:38.192Z,100596.11
2022-09-25T23:40:44.653Z,100590.66
2022-09-25T23:43:52.957Z,100590.02
2022-09-25T23:46:59.977Z,100596.11
2022-09-25T23:50:08.412Z,100587.38
2022-09-25T23:53:14.576Z,100591.91
2022-09-25T23:56:22.933Z,100582.67
2022-09-25T23:59:29.620Z,100583.70
